createdAt,value
2023-01-13T00:00:00.076Z,99601.28
2023-01-13T00:03:02.695Z,99608.47
2023-01-13T00:06:06.817Z,99601.63
2023-01-13T00:09:10.793Z,99607.00
2023-01-13T00:12:13.470Z,99602.38
2023-01-13T00:15:16.366Z,99593.56
2023-01-13T00:18:18.991Z,99610.31
2023-01-13T00:21:23.651Z,99606.75
2023-01-13T00:24:27.802Z,99603.31
2023-01-13T00:27:30.592Z,99613.94
2023-01-13T00:30:34.101Z,99608.13
2023-01-13T00:33:37.575Z,99607.66
2023-01-13T00:36:40.200Z,99629.03
2023-01-13T00:39:44.243Z,99620.13
2023-01-13T00:43:12.742Z,99621.94
2023-01-13T00:46:17.274Z,99628.66
2023-01-13T00:49:19.963Z,99611.66
2023-01-13T00:52:22.602Z,99614.88
2023-01-13T00:55:26.574Z,99619.66
2023-01-13T00:58:29.541Z,99621.03
2023-01-13T01:01:32.251Z,99639.06
2023-01-13T01:04:34.963Z,99626.66
2023-01-13T01:07:37.633Z,99615.25
2023-01-13T01:10:41.629Z,99629.28
2023-01-13T01:13:45.108Z,99632.53
2023-01-13T01:16:47.712Z,99622.63
2023-01-13T01:19:50.375Z,99603.88
2023-01-13T01:22:53.025Z,99614.19
2023-01-13T01:26:01.217Z,99611.38
2023-01-13T01:29:03.977Z,99613.84
2023-01-13T01:32:07.231Z,99619.84
2023-01-13T01:35:10.112Z,99620.63
2023-01-13T01:38:12.730Z,99617.53
2023-01-13T01:41:19.369Z,99620.44
2023-01-13T01:44:50.740Z,99618.72
2023-01-13T01:47:58.362Z,99626.94
2023-01-13T01:51:01.354Z,99637.78
2023-01-13T01:54:08.657Z,99633.88
2023-01-13T01:57:19.131Z,99648.97
2023-01-13T02:00:22.157Z,99633.59
2023-01-13T02:03:25.154Z,99638.69
2023-01-13T02:06:29.023Z,99630.53
2023-01-13T02:09:32.175Z,99631.19
2023-01-13T02:12:37.356Z,99629.25
2023-01-13T02:15:44.979Z,99625.19
2023-01-13T02:18:57.060Z,99636.38
2023-01-13T02:22:23.580Z,99640.56
2023-01-13T02:25:47.740Z,99629.94
2023-01-13T02:29:26.764Z,99626.97
2023-01-13T02:32:36.813Z,99633.41
2023-01-13T02:35:43.749Z,99634.41
2023-01-13T02:38:52.460Z,99627.84
2023-01-13T02:42:19.402Z,99628.97
2023-01-13T02:45:26.971Z,99639.88
2023-01-13T02:48:32.411Z,99648.75
2023-01-13T02:51:36.445Z,99646.09
2023-01-13T02:54:43.005Z,99639.53
2023-01-13T02:57:48.770Z,99635.44
2023-01-13T03:00:51.736Z,99639.50
2023-01-13T03:03:55.785Z,99633.97
2023-01-13T03:07:07.524Z,99631.66
2023-01-13T03:10:15.132Z,99637.88
2023-01-13T03:13:32.652Z,99637.25
2023-01-13T03:16:55.447Z,99644.88
2023-01-13T03:20:06.099Z,99641.75
2023-01-13T03:23:16.471Z,99654.59
2023-01-13T03:26:27.299Z,99657.63
2023-01-13T03:29:36.011Z,99671.88
2023-01-13T03:32:43.335Z,99669.63
2023-01-13T03:35:52.003Z,99658.03
2023-01-13T03:38:58.413Z,99673.03
2023-01-13T03:42:05.466Z,99684.16
2023-01-13T03:45:12.506Z,99677.78
2023-01-13T03:48:20.077Z,99689.22
2023-01-13T03:51:29.487Z,99682.84
2023-01-13T03:54:37.369Z,99691.00
2023-01-13T03:57:47.635Z,99687.97
2023-01-13T04:00:59.044Z,99688.44
2023-01-13T04:04:05.117Z,99673.97
2023-01-13T04:07:17.008Z,99668.59
2023-01-13T04:10:24.496Z,99667.03
2023-01-13T04:13:31.204Z,99670.69
2023-01-13T04:16:35.695Z,99671.00
2023-01-13T04:19:40.087Z,99672.19
2023-01-13T04:22:44.065Z,99676.38
2023-01-13T04:25:47.547Z,99677.31
2023-01-13T04:28:51.840Z,99661.53
2023-01-13T04:31:54.736Z,99665.34
2023-01-13T04:34:57.421Z,99662.38
2023-01-13T04:38:03.387Z,99668.72
2023-01-13T04:41:06.160Z,99680.38
2023-01-13T04:44:08.885Z,99676.66
2023-01-13T04:47:11.472Z,99672.25
2023-01-13T04:50:14.046Z,99674.25
2023-01-13T04:53:18.001Z,99672.81
2023-01-13T04:56:20.583Z,99686.53
2023-01-13T04:59:23.170Z,99684.31
2023-01-13T05:02:25.802Z,99687.81
2023-01-13T05:05:29.400Z,99683.66
2023-01-13T05:08:33.336Z,99675.66
2023-01-13T05:11:53.367Z,99690.09
2023-01-13T05:15:13.813Z,99682.22
2023-01-13T05:18:17.320Z,99674.75
2023-01-13T05:21:33.841Z,99676.47
2023-01-13T05:24:55.427Z,99670.53
2023-01-13T05:28:00.455Z,99660.91
2023-01-13T05:31:03.360Z,99650.53
2023-01-13T05:34:05.948Z,99653.59
2023-01-13T05:37:10.981Z,99657.00
2023-01-13T05:40:35.082Z,99659.69
2023-01-13T05:43:37.675Z,99653.84
2023-01-13T05:46:41.777Z,99656.75
2023-01-13T05:49:44.379Z,99667.56
2023-01-13T05:52:47.070Z,99671.41
2023-01-13T05:55:51.713Z,99663.84
2023-01-13T05:58:54.299Z,99665.44
2023-01-13T06:01:56.862Z,99674.03
2023-01-13T06:04:59.464Z,99678.53
2023-01-13T06:08:03.716Z,99675.41
2023-01-13T06:11:07.829Z,99663.44
2023-01-13T06:14:10.551Z,99668.06
2023-01-13T06:17:14.976Z,99670.53
2023-01-13T06:20:18.430Z,99663.34
2023-01-13T06:23:21.091Z,99653.50
2023-01-13T06:26:26.779Z,99653.44
2023-01-13T06:29:29.352Z,99653.56
2023-01-13T06:32:38.697Z,99660.16
2023-01-13T06:35:45.454Z,99655.56
2023-01-13T06:38:52.290Z,99649.88
2023-01-13T06:42:13.760Z,99649.13
2023-01-13T06:45:16.441Z,99655.00
2023-01-13T06:48:19.797Z,99653.81
2023-01-13T06:51:22.367Z,99657.00
2023-01-13T06:54:27.607Z,99649.63
2023-01-13T06:57:31.664Z,99647.41
2023-01-13T07:00:36.363Z,99657.47
2023-01-13T07:03:38.993Z,99666.38
2023-01-13T07:06:41.574Z,99664.59
2023-01-13T07:09:44.163Z,99664.34
2023-01-13T07:13:06.118Z,99664.25
2023-01-13T07:16:09.887Z,99660.97
2023-01-13T07:19:12.723Z,99674.97
2023-01-13T07:22:15.297Z,99659.47
2023-01-13T07:25:17.898Z,99665.53
2023-01-13T07:28:21.848Z,99664.16
2023-01-13T07:31:26.068Z,99673.41
2023-01-13T07:34:28.720Z,99664.03
2023-01-13T07:37:31.387Z,99665.88
2023-01-13T07:40:33.984Z,99673.53
2023-01-13T07:43:36.939Z,99668.72
2023-01-13T07:46:39.766Z,99674.91
2023-01-13T07:49:42.353Z,99667.88
2023-01-13T07:52:44.957Z,99676.25
2023-01-13T07:55:47.555Z,99665.63
2023-01-13T07:58:52.904Z,99666.00
2023-01-13T08:01:55.594Z,99669.03
2023-01-13T08:04:58.422Z,99664.53
2023-01-13T08:08:02.079Z,99668.38
2023-01-13T08:11:06.817Z,99661.34
2023-01-13T08:14:10.736Z,99668.28
2023-01-13T08:17:13.359Z,99653.50
2023-01-13T08:20:16.265Z,99659.31
2023-01-13T08:23:19.245Z,99669.22
2023-01-13T08:26:22.394Z,99665.34
2023-01-13T08:29:26.357Z,99655.09
2023-01-13T08:32:28.992Z,99659.53
2023-01-13T08:35:31.668Z,99663.66
2023-01-13T08:38:35.500Z,99659.19
2023-01-13T08:41:56.098Z,99659.94
2023-01-13T08:45:00.127Z,99663.66
2023-01-13T08:48:03.105Z,99664.38
2023-01-13T08:51:07.862Z,99666.19
2023-01-13T08:54:10.672Z,99670.56
2023-01-13T08:57:13.783Z,99670.56
2023-01-13T09:00:18.671Z,99675.38
2023-01-13T09:03:21.268Z,99661.75
2023-01-13T09:06:23.916Z,99661.28
2023-01-13T09:09:27.656Z,99665.00
2023-01-13T09:12:48.133Z,99666.19
2023-01-13T09:15:55.866Z,99672.91
2023-01-13T09:18:58.486Z,99673.13
2023-01-13T09:22:01.165Z,99667.66
2023-01-13T09:25:04.116Z,99654.41
2023-01-13T09:28:08.100Z,99670.47
2023-01-13T09:31:12.194Z,99665.81
2023-01-13T09:34:34.825Z,99668.78
2023-01-13T09:37:39.230Z,99676.13
2023-01-13T09:40:43.684Z,99678.78
2023-01-13T09:43:57.573Z,99680.44
2023-01-13T09:47:05.852Z,99663.81
2023-01-13T09:50:21.100Z,99666.66
2023-01-13T09:53:30.002Z,99671.16
2023-01-13T09:56:32.616Z,99662.91
2023-01-13T09:59:36.772Z,99659.06
2023-01-13T10:03:07.128Z,99657.59
2023-01-13T10:06:16.019Z,99650.88
2023-01-13T10:09:23.796Z,99647.25
2023-01-13T10:12:45.539Z,99645.47
2023-01-13T10:15:57.418Z,99641.09
2023-01-13T10:19:09.683Z,99658.53
2023-01-13T10:22:22.825Z,99655.25
2023-01-13T10:25:32.569Z,99665.59
2023-01-13T10:28:35.227Z,99668.03
2023-01-13T10:31:37.817Z,99659.81
2023-01-13T10:34:49.551Z,99656.13
2023-01-13T10:37:58.287Z,99657.06
2023-01-13T10:41:03.281Z,99649.03
2023-01-13T10:44:15.923Z,99665.53
2023-01-13T10:47:24.937Z,99651.84
2023-01-13T10:50:31.499Z,99654.50
2023-01-13T10:53:34.116Z,99651.53
2023-01-13T10:56:36.691Z,99635.53
2023-01-13T10:59:39.312Z,99654.72
2023-01-13T11:02:42.053Z,99648.41
2023-01-13T11:05:54.553Z,99645.50
2023-01-13T11:08:59.212Z,99658.53
2023-01-13T11:12:02.986Z,99654.19
2023-01-13T11:15:10.383Z,99682.66
2023-01-13T11:18:22.750Z,99680.13
2023-01-13T11:21:34.515Z,99678.31
2023-01-13T11:24:41.468Z,99681.19
2023-01-13T11:27:48.615Z,99677.31
2023-01-13T11:30:57.828Z,99672.19
2023-01-13T11:34:04.734Z,99678.94
2023-01-13T11:37:15.555Z,99685.31
2023-01-13T11:40:26.723Z,99681.28
2023-01-13T11:43:36.163Z,99685.97
2023-01-13T11:46:39.687Z,99680.31
2023-01-13T11:49:45.264Z,99685.72
2023-01-13T11:53:05.320Z,99683.22
2023-01-13T11:56:24.237Z,99679.34
2023-01-13T11:59:54.168Z,99674.72
2023-01-13T12:03:10.077Z,99668.06
2023-01-13T12:06:22.513Z,99678.00
2023-01-13T12:09:37.516Z,99680.34
2023-01-13T12:12:49.616Z,99680.84
2023-01-13T12:16:10.172Z,99676.31
2023-01-13T12:19:27.952Z,99681.50
2023-01-13T12:22:35.985Z,99673.03
2023-01-13T12:25:44.992Z,99666.03
2023-01-13T12:28:52.782Z,99662.16
2023-01-13T12:31:56.163Z,99663.66
2023-01-13T12:35:09.326Z,99670.38
2023-01-13T12:38:21.109Z,99675.03
2023-01-13T12:41:59.227Z,99677.88
2023-01-13T12:45:24.673Z,99673.19
2023-01-13T12:48:49.007Z,99671.66
2023-01-13T12:52:10.422Z,99676.13
2023-01-13T12:55:21.315Z,99672.72
2023-01-13T12:58:29.537Z,99671.16
2023-01-13T13:01:36.844Z,99676.94
2023-01-13T13:04:44.982Z,99683.63
2023-01-13T13:07:50.124Z,99681.91
2023-01-13T13:11:38.951Z,99688.97
2023-01-13T13:15:05.030Z,99693.41
2023-01-13T13:18:25.054Z,99674.59
2023-01-13T13:22:08.077Z,99691.84
2023-01-13T13:25:27.157Z,99695.75
2023-01-13T13:28:35.298Z,99692.16
2023-01-13T13:31:57.564Z,99702.31
2023-01-13T13:35:15.161Z,99693.03
2023-01-13T13:38:50.052Z,99699.31
2023-01-13T13:42:17.384Z,99703.31
2023-01-13T13:45:40.467Z,99709.97
2023-01-13T13:48:53.952Z,99708.03
2023-01-13T13:52:02.804Z,99710.34
2023-01-13T13:55:11.941Z,99709.25
2023-01-13T13:58:18.815Z,99718.13
2023-01-13T14:01:25.754Z,99722.16
2023-01-13T14:04:31.547Z,99717.03
2023-01-13T14:07:43.786Z,99727.16
2023-01-13T14:10:47.227Z,99723.44
2023-01-13T14:14:02.166Z,99735.84
2023-01-13T14:17:05.946Z,99739.03
2023-01-13T14:20:18.504Z,99737.47
2023-01-13T14:23:25.936Z,99736.75
2023-01-13T14:26:31.721Z,99740.72
2023-01-13T14:29:34.331Z,99737.75
2023-01-13T14:32:38.388Z,99727.19
2023-01-13T14:36:13.024Z,99721.53
2023-01-13T14:39:34.248Z,99725.75
2023-01-13T14:42:36.882Z,99730.88
2023-01-13T14:45:39.863Z,99737.31
2023-01-13T14:48:47.014Z,99764.38
2023-01-13T14:51:51.592Z,99746.03
2023-01-13T14:54:55.838Z,99749.34
2023-01-13T14:58:28.314Z,99751.16
2023-01-13T15:01:36.709Z,99750.31
2023-01-13T15:04:39.580Z,99746.97
2023-01-13T15:07:50.983Z,99744.47
2023-01-13T15:10:59.697Z,99731.75
2023-01-13T15:14:02.588Z,99751.53
2023-01-13T15:17:15.552Z,99754.03
2023-01-13T15:20:20.454Z,99753.59
2023-01-13T15:23:24.599Z,99762.31
2023-01-13T15:26:29.061Z,99769.84
2023-01-13T15:29:31.687Z,99775.25
2023-01-13T15:32:34.304Z,99783.19
2023-01-13T15:35:38.477Z,99790.25
2023-01-13T15:38:42.426Z,99784.97
2023-01-13T15:42:02.795Z,99790.53
2023-01-13T15:45:23.540Z,99782.06
2023-01-13T15:48:27.881Z,99795.88
2023-01-13T15:51:30.456Z,99791.31
2023-01-13T15:54:34.398Z,99804.72
2023-01-13T15:57:40.314Z,99820.97
2023-01-13T16:00:43.652Z,99825.91
2023-01-13T16:03:46.244Z,99837.34
2023-01-13T16:06:48.905Z,99826.78
2023-01-13T16:09:53.240Z,99826.50
2023-01-13T16:12:56.706Z,99821.53
2023-01-13T16:16:00.272Z,99818.69
2023-01-13T16:19:02.960Z,99820.38
2023-01-13T16:22:05.582Z,99824.72
2023-01-13T16:25:15.950Z,99844.31
2023-01-13T16:28:21.539Z,99842.50
2023-01-13T16:31:26.682Z,99838.50
2023-01-13T16:34:29.304Z,99840.09
2023-01-13T16:37:31.877Z,99844.91
2023-01-13T16:40:37.463Z,99859.50
2023-01-13T16:43:40.293Z,99862.66
2023-01-13T16:46:44.463Z,99872.22
2023-01-13T16:49:47.628Z,99884.19
2023-01-13T16:52:50.266Z,99886.28
2023-01-13T16:55:54.221Z,99896.00
2023-01-13T16:58:59.041Z,99914.34
2023-01-13T17:02:01.977Z,99918.63
2023-01-13T17:05:04.985Z,99930.81
2023-01-13T17:08:07.683Z,99936.69
2023-01-13T17:11:12.269Z,99946.47
2023-01-13T17:14:17.768Z,99934.84
2023-01-13T17:17:23.695Z,99936.53
2023-01-13T17:20:26.320Z,99934.47
2023-01-13T17:23:29.770Z,99945.13
2023-01-13T17:26:37.129Z,99937.78
2023-01-13T17:29:40.029Z,99944.03
2023-01-13T17:32:42.722Z,99947.50
2023-01-13T17:35:45.977Z,99943.25
2023-01-13T17:38:48.596Z,99933.63
2023-01-13T17:41:53.415Z,99931.41
2023-01-13T17:44:56.378Z,99938.91
2023-01-13T17:47:59.456Z,99912.63
2023-01-13T17:51:03.331Z,99939.25
2023-01-13T17:54:06.048Z,99940.94
2023-01-13T17:57:10.387Z,99941.78
2023-01-13T18:00:13.954Z,99944.00
2023-01-13T18:03:17.098Z,99959.25
2023-01-13T18:06:22.548Z,99970.91
2023-01-13T18:09:26.216Z,99962.06
2023-01-13T18:12:30.214Z,99979.38
2023-01-13T18:15:33.006Z,99986.63
2023-01-13T18:18:35.732Z,99981.53
2023-01-13T18:21:56.098Z,99983.69
2023-01-13T18:25:16.397Z,100000.47
2023-01-13T18:28:20.380Z,100005.53
2023-01-13T18:31:22.954Z,100003.25
2023-01-13T18:34:25.830Z,99999.34
2023-01-13T18:37:28.761Z,100014.63
2023-01-13T18:40:31.327Z,100016.13
2023-01-13T18:43:34.294Z,100015.81
2023-01-13T18:46:36.937Z,100011.78
2023-01-13T18:49:39.495Z,100021.03
2023-01-13T18:52:42.130Z,100031.97
2023-01-13T18:55:44.699Z,100036.56
2023-01-13T18:58:51.798Z,100049.84
2023-01-13T19:01:54.448Z,100058.84
2023-01-13T19:04:57.611Z,100071.22
2023-01-13T19:08:00.886Z,100064.25
2023-01-13T19:11:07.238Z,100074.66
2023-01-13T19:14:11.177Z,100083.66
2023-01-13T19:17:15.651Z,100085.56
2023-01-13T19:20:19.807Z,100082.41
2023-01-13T19:23:22.397Z,100089.63
2023-01-13T19:26:24.955Z,100089.38
2023-01-13T19:29:32.615Z,100089.53
2023-01-13T19:32:36.371Z,100094.72
2023-01-13T19:35:38.985Z,100094.78
2023-01-13T19:38:41.695Z,100109.75
2023-01-13T19:42:01.963Z,100126.75
2023-01-13T19:45:24.279Z,100119.91
2023-01-13T19:48:26.834Z,100133.09
2023-01-13T19:51:29.415Z,100124.09
2023-01-13T19:54:32.013Z,100126.59
2023-01-13T19:57:34.671Z,100137.09
2023-01-13T20:00:46.666Z,100146.53
2023-01-13T20:03:50.361Z,100152.03
2023-01-13T20:06:52.922Z,100160.88
2023-01-13T20:09:56.690Z,100161.53
2023-01-13T20:12:59.718Z,100161.88
2023-01-13T20:16:05.764Z,100166.31
2023-01-13T20:19:08.429Z,100177.69
2023-01-13T20:22:11.630Z,100178.00
2023-01-13T20:25:16.767Z,100189.13
2023-01-13T20:28:19.909Z,100212.34
2023-01-13T20:31:23.854Z,100210.06
2023-01-13T20:34:27.087Z,100216.75
2023-01-13T20:37:29.641Z,100217.72
2023-01-13T20:40:32.261Z,100226.22
2023-01-13T20:43:34.865Z,100240.75
2023-01-13T20:46:38.788Z,100252.97
2023-01-13T20:49:41.384Z,100245.91
2023-01-13T20:52:44.450Z,100245.25
2023-01-13T20:55:47.056Z,100249.38
2023-01-13T20:58:49.642Z,100244.78
2023-01-13T21:01:53.567Z,100243.31
2023-01-13T21:04:56.149Z,100235.91
2023-01-13T21:07:58.750Z,100236.41
2023-01-13T21:11:04.417Z,100237.78
2023-01-13T21:14:25.180Z,100256.44
2023-01-13T21:17:48.863Z,100241.72
2023-01-13T21:21:11.239Z,100252.47
2023-01-13T21:24:14.039Z,100255.28
2023-01-13T21:27:16.782Z,100267.19
2023-01-13T21:30:19.415Z,100262.34
2023-01-13T21:33:23.363Z,100274.50
2023-01-13T21:36:27.662Z,100275.31
2023-01-13T21:39:30.288Z,100266.06
2023-01-13T21:42:50.443Z,100284.31
2023-01-13T21:46:10.816Z,100289.66
2023-01-13T21:49:14.799Z,100303.63
2023-01-13T21:52:17.504Z,100303.06
2023-01-13T21:55:25.001Z,100304.56
2023-01-13T21:58:27.602Z,100309.00
2023-01-13T22:01:30.258Z,100317.59
2023-01-13T22:04:34.231Z,100323.22
2023-01-13T22:07:37.924Z,100330.75
2023-01-13T22:10:56.903Z,100338.28
2023-01-13T22:14:09.877Z,100350.78
2023-01-13T22:17:15.028Z,100349.75
2023-01-13T22:20:19.925Z,100358.44
2023-01-13T22:23:22.492Z,100356.69
2023-01-13T22:26:25.053Z,100358.31
2023-01-13T22:29:27.642Z,100376.53
2023-01-13T22:32:30.242Z,100378.56
2023-01-13T22:35:34.177Z,100378.38
2023-01-13T22:38:37.307Z,100378.16
2023-01-13T22:41:39.895Z,100389.25
2023-01-13T22:44:44.070Z,100388.22
2023-01-13T22:47:46.751Z,100390.75
2023-01-13T22:50:50.674Z,100392.47
2023-01-13T22:53:53.303Z,100400.47
2023-01-13T22:56:55.861Z,100389.34
2023-01-13T22:59:58.530Z,100411.00
2023-01-13T23:03:01.138Z,100412.53
2023-01-13T23:06:05.714Z,100405.03
2023-01-13T23:09:09.976Z,100406.69
2023-01-13T23:12:12.572Z,100421.72
2023-01-13T23:15:15.243Z,100427.91
2023-01-13T23:18:17.861Z,100416.78
2023-01-13T23:21:23.705Z,100429.03
2023-01-13T23:24:27.853Z,100446.47
2023-01-13T23:27:30.410Z,100447.19
2023-01-13T23:30:33.027Z,100437.63
2023-01-13T23:33:37.518Z,100439.22
2023-01-13T23:36:43.259Z,100459.38
2023-01-13T23:39:45.855Z,100466.63
2023-01-13T23:42:48.452Z,100473.56
2023-01-13T23:45:51.235Z,100477.00
2023-01-13T23:48:55.241Z,100492.56
2023-01-13T23:51:59.195Z,100502.19
2023-01-13T23:55:02.442Z,100494.28
2023-01-13T23:58:05.052Z,100505.88
